createdAt,value
2018-08-13T00:00:43.916Z,16.56
2018-08-13T00:01:43.833Z,16.53
2018-08-13T00:02:43.771Z,16.55
2018-08-13T00:03:43.689Z,16.59
2018-08-13T00:04:43.620Z,16.63
2018-08-13T00:05:43.540Z,16.62
2018-08-13T00:06:43.471Z,16.62
2018-08-13T00:07:43.391Z,16.71
2018-08-13T00:08:43.323Z,16.77
2018-08-13T00:09:43.241Z,16.77
2018-08-13T00:10:43.178Z,16.84
2018-08-13T00:11:43.095Z,16.85
2018-08-13T00:12:43.032Z,16.82
2018-08-13T00:13:42.947Z,16.99
2018-08-13T00:14:42.879Z,16.99
2018-08-13T00:15:42.797Z,16.89
2018-08-13T00:16:42.729Z,16.95
2018-08-13T00:17:42.775Z,16.82
2018-08-13T00:18:42.582Z,16.71
2018-08-13T00:19:42.504Z,16.60
2018-08-13T00:20:42.438Z,16.56
2018-08-13T00:21:42.358Z,16.41
2018-08-13T00:22:42.287Z,16.42
2018-08-13T00:23:42.206Z,16.40
2018-08-13T00:24:42.137Z,16.55
2018-08-13T00:25:42.058Z,16.48
2018-08-13T00:26:41.993Z,16.38
2018-08-13T00:27:41.912Z,16.35
2018-08-13T00:28:41.837Z,16.35
2018-08-13T00:29:41.761Z,16.29
2018-08-13T00:30:41.697Z,16.25
2018-08-13T00:31:41.611Z,16.15
2018-08-13T00:32:41.546Z,16.03
2018-08-13T00:33:41.476Z,16.04
2018-08-13T00:34:41.397Z,15.92
2018-08-13T00:35:41.316Z,15.78
2018-08-13T00:36:41.248Z,15.83
2018-08-13T00:37:41.167Z,15.70
2018-08-13T00:38:41.102Z,15.67
2018-08-13T00:39:41.018Z,15.63
2018-08-13T00:40:41.001Z,15.67
2018-08-13T00:41:40.870Z,15.59
2018-08-13T00:42:40.802Z,15.53
2018-08-13T00:43:40.722Z,15.61
2018-08-13T00:44:40.654Z,15.55
2018-08-13T00:45:40.572Z,15.60
2018-08-13T00:46:40.514Z,15.59
2018-08-13T00:47:40.424Z,15.60
2018-08-13T00:48:40.356Z,15.64
2018-08-13T00:49:40.275Z,15.57
2018-08-13T00:50:40.215Z,15.57
2018-08-13T00:51:40.126Z,15.61
2018-08-13T00:52:40.058Z,15.63
2018-08-13T00:53:39.977Z,15.57
2018-08-13T00:54:39.912Z,15.53
2018-08-13T00:55:39.827Z,15.49
2018-08-13T00:56:39.756Z,15.46
2018-08-13T00:57:39.679Z,15.53
2018-08-13T00:58:39.607Z,15.52
2018-08-13T00:59:39.533Z,15.38
2018-08-13T01:00:39.463Z,15.27
2018-08-13T01:01:39.381Z,15.15
2018-08-13T01:02:39.310Z,15.21
2018-08-13T01:03:39.232Z,15.15
2018-08-13T01:04:39.166Z,15.09
2018-08-13T01:05:39.084Z,15.05
2018-08-13T01:06:39.014Z,15.02
2018-08-13T01:07:38.931Z,15.02
2018-08-13T01:08:38.863Z,15.02
2018-08-13T01:09:38.784Z,15.08
2018-08-13T01:10:38.716Z,15.09
2018-08-13T01:11:38.636Z,15.10
2018-08-13T01:12:38.566Z,15.13
2018-08-13T01:13:38.484Z,15.01
2018-08-13T01:14:38.416Z,15.01
2018-08-13T01:15:38.336Z,14.87
2018-08-13T01:16:38.271Z,14.78
2018-08-13T01:17:38.188Z,14.75
2018-08-13T01:18:38.118Z,14.61
2018-08-13T01:19:38.038Z,14.59
2018-08-13T01:20:37.968Z,14.71
2018-08-13T01:21:37.887Z,14.61
2018-08-13T01:22:37.818Z,14.68
2018-08-13T01:23:37.737Z,14.72
2018-08-13T01:24:37.678Z,14.69
2018-08-13T01:25:37.588Z,14.72
2018-08-13T01:26:37.519Z,14.72
2018-08-13T01:27:37.440Z,14.69
2018-08-13T01:28:37.371Z,14.60
2018-08-13T01:29:37.287Z,14.61
2018-08-13T01:30:37.220Z,14.61
2018-08-13T01:31:37.145Z,14.61
2018-08-13T01:32:37.071Z,14.61
2018-08-13T01:33:36.990Z,14.68
2018-08-13T01:34:36.918Z,14.57
2018-08-13T01:35:36.836Z,14.44
2018-08-13T01:36:37.770Z,14.46
2018-08-13T01:37:36.689Z,14.42
2018-08-13T01:38:36.619Z,14.39
2018-08-13T01:39:36.539Z,14.44
2018-08-13T01:40:36.473Z,14.39
2018-08-13T01:41:36.391Z,14.36
2018-08-13T01:42:36.320Z,14.36
2018-08-13T01:43:36.237Z,14.42
2018-08-13T01:44:36.169Z,14.46
2018-08-13T01:45:36.084Z,14.47
2018-08-13T01:46:36.015Z,14.35
2018-08-13T01:47:35.933Z,14.32
2018-08-13T01:48:35.865Z,14.35
2018-08-13T01:49:35.787Z,14.34
2018-08-13T01:50:35.719Z,14.29
2018-08-13T01:51:35.634Z,14.20
2018-08-13T01:52:35.564Z,14.23
2018-08-13T01:53:35.485Z,14.19
2018-08-13T01:54:35.415Z,14.20
2018-08-13T01:55:35.334Z,14.21
2018-08-13T01:56:35.266Z,14.11
2018-08-13T01:57:35.180Z,14.16
2018-08-13T01:58:35.114Z,14.14
2018-08-13T01:59:35.031Z,14.21
2018-08-13T02:00:34.968Z,14.13
2018-08-13T02:01:34.936Z,14.23
2018-08-13T02:02:34.811Z,14.17
2018-08-13T02:03:34.731Z,14.14
2018-08-13T02:04:34.663Z,14.24
2018-08-13T02:05:34.578Z,14.14
2018-08-13T02:06:34.508Z,14.29
2018-08-13T02:07:34.427Z,14.29
2018-08-13T02:08:34.361Z,14.28
2018-08-13T02:09:34.278Z,14.24
2018-08-13T02:10:34.209Z,14.31
2018-08-13T02:11:34.132Z,14.31
2018-08-13T02:12:34.068Z,14.21
2018-08-13T02:13:33.978Z,14.28
2018-08-13T02:14:33.908Z,14.17
2018-08-13T02:15:33.827Z,14.19
2018-08-13T02:16:33.760Z,14.09
2018-08-13T02:17:33.673Z,14.03
2018-08-13T02:18:33.611Z,14.02
2018-08-13T02:19:33.525Z,14.02
2018-08-13T02:20:33.462Z,13.99
2018-08-13T02:21:33.374Z,14.01
2018-08-13T02:22:33.299Z,14.02
2018-08-13T02:23:33.222Z,14.02
2018-08-13T02:24:33.154Z,14.03
2018-08-13T02:25:33.074Z,13.91
2018-08-13T02:26:32.999Z,14.02
2018-08-13T02:27:32.918Z,13.99
2018-08-13T02:28:32.854Z,13.94
2018-08-13T02:29:32.770Z,13.96
2018-08-13T02:30:32.701Z,13.99
2018-08-13T02:31:32.624Z,13.91
2018-08-13T02:32:32.553Z,13.86
2018-08-13T02:33:32.472Z,13.86
2018-08-13T02:34:32.398Z,13.83
2018-08-13T02:35:32.316Z,13.81
2018-08-13T02:36:32.250Z,13.71
2018-08-13T02:37:32.163Z,13.73
2018-08-13T02:38:32.101Z,13.61
2018-08-13T02:39:32.023Z,13.48
2018-08-13T02:40:31.943Z,13.43
2018-08-13T02:41:31.866Z,13.44
2018-08-13T02:42:31.794Z,13.47
2018-08-13T02:43:31.710Z,13.45
2018-08-13T02:44:31.647Z,13.48
2018-08-13T02:45:31.562Z,13.53
2018-08-13T02:46:31.500Z,13.59
2018-08-13T02:47:31.410Z,13.65
2018-08-13T02:48:31.338Z,13.61
2018-08-13T02:49:31.259Z,13.76
2018-08-13T02:50:31.189Z,13.76
2018-08-13T02:51:31.104Z,13.84
2018-08-13T02:52:31.041Z,13.89
2018-08-13T02:53:30.953Z,13.87
2018-08-13T02:54:30.887Z,13.98
2018-08-13T02:55:30.808Z,14.01
2018-08-13T02:56:30.737Z,14.01
2018-08-13T02:57:30.655Z,14.10
2018-08-13T02:58:30.584Z,14.07
2018-08-13T02:59:30.499Z,14.05
2018-08-13T03:00:30.430Z,14.02
2018-08-13T03:01:30.346Z,13.96
2018-08-13T03:02:30.280Z,13.89
2018-08-13T03:03:30.195Z,13.87
2018-08-13T03:04:30.132Z,13.83
2018-08-13T03:05:30.043Z,13.83
2018-08-13T03:06:29.979Z,13.76
2018-08-13T03:07:29.892Z,13.65
2018-08-13T03:08:29.825Z,13.70
2018-08-13T03:09:29.741Z,13.71
2018-08-13T03:10:29.674Z,13.59
2018-08-13T03:11:29.589Z,13.50
2018-08-13T03:12:29.519Z,13.47
2018-08-13T03:13:29.439Z,13.48
2018-08-13T03:14:29.371Z,13.41
2018-08-13T03:15:29.288Z,13.37
2018-08-13T03:16:29.221Z,13.38
2018-08-13T03:17:29.138Z,13.29
2018-08-13T03:18:29.070Z,13.37
2018-08-13T03:19:28.984Z,13.27
2018-08-13T03:20:28.918Z,13.29
2018-08-13T03:21:28.833Z,13.41
2018-08-13T03:22:28.763Z,13.38
2018-08-13T03:23:28.678Z,13.33
2018-08-13T03:24:28.612Z,13.44
2018-08-13T03:25:28.536Z,13.41
2018-08-13T03:26:28.458Z,13.38
2018-08-13T03:27:28.375Z,13.45
2018-08-13T03:28:28.305Z,13.47
2018-08-13T03:29:28.223Z,13.45
2018-08-13T03:30:28.152Z,13.53
2018-08-13T03:31:28.070Z,13.48
2018-08-13T03:32:28.009Z,13.43
2018-08-13T03:33:27.941Z,13.37
2018-08-13T03:34:27.853Z,13.40
2018-08-13T03:35:27.767Z,13.37
2018-08-13T03:36:27.700Z,13.36
2018-08-13T03:37:27.618Z,13.33
2018-08-13T03:38:27.545Z,13.36
2018-08-13T03:39:27.468Z,13.37
2018-08-13T03:40:27.403Z,13.36
2018-08-13T03:41:27.313Z,13.41
2018-08-13T03:42:27.246Z,13.45
2018-08-13T03:43:27.160Z,13.50
2018-08-13T03:44:27.092Z,13.50
2018-08-13T03:45:27.016Z,13.50
2018-08-13T03:46:26.940Z,13.55
2018-08-13T03:47:26.856Z,13.52
2018-08-13T03:48:26.790Z,13.47
2018-08-13T03:49:26.705Z,13.55
2018-08-13T03:50:26.733Z,13.62
2018-08-13T03:51:26.549Z,13.65
2018-08-13T03:52:26.485Z,13.66
2018-08-13T03:53:26.403Z,13.61
2018-08-13T03:54:26.326Z,13.73
2018-08-13T03:55:26.252Z,13.59
2018-08-13T03:56:26.177Z,13.71
2018-08-13T03:57:26.104Z,13.59
2018-08-13T03:58:26.033Z,13.55
2018-08-13T03:59:25.946Z,13.43
2018-08-13T04:00:25.879Z,13.32
2018-08-13T04:01:25.798Z,13.33
2018-08-13T04:02:25.723Z,13.27
2018-08-13T04:03:25.641Z,13.21
2018-08-13T04:04:25.572Z,13.27
2018-08-13T04:05:25.488Z,13.29
2018-08-13T04:06:25.508Z,13.28
2018-08-13T04:07:25.336Z,13.25
2018-08-13T04:08:25.315Z,13.11
2018-08-13T04:09:25.213Z,13.25
2018-08-13T04:10:25.130Z,13.17
2018-08-13T04:11:25.032Z,13.15
2018-08-13T04:12:25.040Z,13.02
2018-08-13T04:13:24.880Z,13.03
2018-08-13T04:14:24.807Z,13.04
2018-08-13T04:15:24.730Z,13.06
2018-08-13T04:16:24.655Z,12.96
2018-08-13T04:17:24.572Z,13.02
2018-08-13T04:18:24.565Z,12.97
2018-08-13T04:19:24.425Z,13.04
2018-08-13T04:20:24.374Z,13.04
2018-08-13T04:21:24.270Z,13.02
2018-08-13T04:22:24.284Z,13.03
2018-08-13T04:23:24.119Z,13.04
2018-08-13T04:24:24.093Z,12.99
2018-08-13T04:25:23.961Z,13.06
2018-08-13T04:26:24.004Z,13.02
2018-08-13T04:27:23.814Z,13.03
2018-08-13T04:28:23.754Z,13.02
2018-08-13T04:29:23.659Z,12.96
2018-08-13T04:30:23.619Z,13.03
2018-08-13T04:31:23.509Z,12.99
2018-08-13T04:32:23.526Z,13.02
2018-08-13T04:33:23.351Z,13.00
2018-08-13T04:34:23.338Z,13.14
2018-08-13T04:35:23.204Z,13.04
2018-08-13T04:36:23.147Z,13.11
2018-08-13T04:37:23.051Z,13.10
2018-08-13T04:38:23.058Z,13.18
2018-08-13T04:39:22.899Z,13.15
2018-08-13T04:40:22.865Z,13.19
2018-08-13T04:41:22.746Z,13.25
2018-08-13T04:42:22.777Z,13.21
2018-08-13T04:43:22.595Z,13.25
2018-08-13T04:44:22.585Z,13.24
2018-08-13T04:45:22.446Z,13.21
2018-08-13T04:46:22.393Z,13.25
2018-08-13T04:47:22.291Z,13.28
2018-08-13T04:48:22.303Z,13.36
2018-08-13T04:49:22.136Z,13.37
2018-08-13T04:50:22.114Z,13.33
2018-08-13T04:51:21.984Z,13.41
2018-08-13T04:52:22.022Z,13.44
2018-08-13T04:53:22.513Z,13.48
2018-08-13T04:54:21.831Z,13.55
2018-08-13T04:55:21.682Z,13.59
2018-08-13T04:56:21.641Z,13.62
2018-08-13T04:57:21.528Z,13.65
2018-08-13T04:58:21.550Z,13.77
2018-08-13T04:59:21.383Z,13.77
2018-08-13T05:00:21.357Z,13.70
2018-08-13T05:01:21.224Z,13.81
2018-08-13T05:02:21.153Z,13.76
2018-08-13T05:03:21.073Z,13.80
2018-08-13T05:04:21.005Z,13.95
2018-08-13T05:05:20.919Z,13.89
2018-08-13T05:06:20.849Z,13.98
2018-08-13T05:07:20.794Z,14.07
2018-08-13T05:08:20.797Z,14.16
2018-08-13T05:09:20.619Z,14.16
2018-08-13T05:10:20.609Z,14.19
2018-08-13T05:11:20.468Z,14.28
2018-08-13T05:12:20.413Z,14.28
2018-08-13T05:13:20.314Z,14.39
2018-08-13T05:14:20.326Z,14.34
2018-08-13T05:15:20.155Z,14.35
2018-08-13T05:16:20.133Z,14.42
2018-08-13T05:17:20.005Z,14.44
2018-08-13T05:18:20.043Z,14.39
2018-08-13T05:19:19.857Z,14.53
2018-08-13T05:20:19.854Z,14.57
2018-08-13T05:21:19.722Z,14.57
2018-08-13T05:22:19.661Z,14.59
2018-08-13T05:23:19.549Z,14.65
2018-08-13T05:24:19.571Z,14.74
2018-08-13T05:25:19.398Z,14.75
2018-08-13T05:26:19.379Z,14.71
2018-08-13T05:27:19.247Z,14.80
2018-08-13T05:28:19.188Z,14.83
2018-08-13T05:29:19.093Z,14.84
2018-08-13T05:30:19.184Z,14.84
2018-08-13T05:31:18.943Z,14.94
2018-08-13T05:32:18.914Z,15.02
2018-08-13T05:33:18.796Z,15.02
2018-08-13T05:34:18.821Z,15.10
2018-08-13T05:35:18.637Z,15.13
2018-08-13T05:36:18.626Z,15.13
2018-08-13T05:37:18.487Z,15.27
2018-08-13T05:38:18.528Z,15.28
2018-08-13T05:39:18.336Z,15.30
2018-08-13T05:40:18.347Z,15.39
2018-08-13T05:41:18.188Z,15.48
2018-08-13T05:42:18.151Z,15.53
2018-08-13T05:43:18.030Z,15.49
2018-08-13T05:44:17.964Z,15.45
2018-08-13T05:45:17.884Z,15.57
2018-08-13T05:46:17.874Z,15.52
2018-08-13T05:47:17.731Z,15.60
2018-08-13T05:48:17.679Z,15.60
2018-08-13T05:49:17.580Z,15.70
2018-08-13T05:50:17.594Z,15.78
2018-08-13T05:51:17.426Z,15.70
2018-08-13T05:52:17.402Z,15.86
2018-08-13T05:53:17.277Z,15.89
2018-08-13T05:54:17.310Z,15.97
2018-08-13T05:55:17.128Z,16.00
2018-08-13T05:56:17.119Z,16.07
2018-08-13T05:57:16.973Z,16.12
2018-08-13T05:58:16.928Z,16.26
2018-08-13T05:59:16.822Z,16.34
2018-08-13T06:00:16.839Z,16.45
2018-08-13T06:01:16.674Z,16.44
2018-08-13T06:02:16.647Z,16.55
2018-08-13T06:03:16.521Z,16.56
2018-08-13T06:04:16.559Z,16.67
2018-08-13T06:05:16.371Z,16.73
2018-08-13T06:06:16.368Z,16.74
2018-08-13T06:07:16.223Z,16.89
2018-08-13T06:08:16.174Z,16.93
2018-08-13T06:09:16.074Z,16.93
2018-08-13T06:10:15.997Z,16.90
2018-08-13T06:11:15.954Z,16.98
2018-08-13T06:12:15.981Z,17.14
2018-08-13T06:13:15.769Z,17.13
2018-08-13T06:14:15.890Z,17.20
2018-08-13T06:15:15.630Z,17.20
2018-08-13T06:16:15.698Z,17.25
2018-08-13T06:17:15.472Z,17.32
2018-08-13T06:18:15.569Z,17.29
2018-08-13T06:19:15.320Z,17.39
2018-08-13T06:20:15.418Z,17.50
2018-08-13T06:21:15.170Z,17.55
2018-08-13T06:22:15.125Z,17.55
2018-08-13T06:23:15.018Z,17.69
2018-08-13T06:24:15.198Z,17.73
2018-08-13T06:25:14.879Z,17.79
2018-08-13T06:26:14.852Z,17.92
2018-08-13T06:27:14.720Z,17.95
2018-08-13T06:28:14.703Z,18.06
2018-08-13T06:29:14.765Z,18.25
2018-08-13T06:30:14.545Z,18.53
2018-08-13T06:31:14.470Z,18.77
2018-08-13T06:32:14.348Z,19.06
2018-08-13T06:33:14.384Z,19.23
2018-08-13T06:34:14.192Z,19.31
2018-08-13T06:35:14.307Z,19.32
2018-08-13T06:36:14.051Z,19.50
2018-08-13T06:37:14.053Z,19.55
2018-08-13T06:38:13.894Z,19.75
2018-08-13T06:39:14.015Z,19.93
2018-08-13T06:40:13.752Z,20.06
2018-08-13T06:41:13.827Z,20.10
2018-08-13T06:42:13.598Z,20.23
2018-08-13T06:43:13.735Z,20.20
2018-08-13T06:44:13.454Z,20.27
2018-08-13T06:45:13.442Z,20.47
2018-08-13T06:46:13.303Z,20.54
2018-08-13T06:47:13.256Z,20.62
2018-08-13T06:48:13.159Z,20.79
2018-08-13T06:49:13.267Z,20.87
2018-08-13T06:50:13.009Z,20.99
2018-08-13T06:51:12.973Z,21.06
2018-08-13T06:52:12.860Z,21.11
2018-08-13T06:53:12.886Z,21.14
2018-08-13T06:54:12.712Z,21.29
2018-08-13T06:55:12.691Z,21.24
2018-08-13T06:56:12.563Z,21.30
2018-08-13T06:57:12.614Z,21.38
2018-08-13T06:58:12.417Z,21.41
2018-08-13T06:59:12.420Z,21.60
2018-08-13T07:00:12.272Z,21.72
2018-08-13T07:01:12.224Z,21.95
2018-08-13T07:02:12.131Z,22.02
2018-08-13T07:03:12.142Z,22.13
2018-08-13T07:04:11.977Z,22.16
2018-08-13T07:05:11.946Z,22.15
2018-08-13T07:06:11.880Z,22.23
2018-08-13T07:07:11.958Z,22.32
2018-08-13T07:08:11.684Z,22.35
2018-08-13T07:09:11.607Z,22.47
2018-08-13T07:10:11.540Z,22.52
2018-08-13T07:11:11.683Z,22.57
2018-08-13T07:12:11.397Z,22.63
2018-08-13T07:13:11.485Z,22.62
2018-08-13T07:14:11.249Z,22.84
2018-08-13T07:15:11.316Z,22.78
2018-08-13T07:16:11.100Z,22.93
2018-08-13T07:17:12.232Z,22.97
2018-08-13T07:18:10.958Z,23.12
2018-08-13T07:19:10.888Z,23.17
2018-08-13T07:20:10.813Z,23.20
2018-08-13T07:21:11.953Z,23.29
2018-08-13T07:22:10.736Z,23.43
2018-08-13T07:23:10.635Z,23.53
2018-08-13T07:24:10.518Z,23.56
2018-08-13T07:25:11.574Z,23.67
2018-08-13T07:26:10.375Z,23.74
2018-08-13T07:27:10.457Z,23.80
2018-08-13T07:28:10.293Z,24.01
2018-08-13T07:29:10.369Z,23.95
2018-08-13T07:30:10.092Z,24.16
2018-08-13T07:31:10.183Z,24.08
2018-08-13T07:32:09.945Z,24.19
2018-08-13T07:33:10.089Z,24.29
2018-08-13T07:34:09.799Z,24.26
2018-08-13T07:35:09.896Z,24.47
2018-08-13T07:36:09.657Z,24.44
2018-08-13T07:37:09.806Z,24.53
2018-08-13T07:38:09.517Z,24.67
2018-08-13T07:39:09.482Z,24.69
2018-08-13T07:40:09.521Z,24.88
2018-08-13T07:41:09.305Z,24.98
2018-08-13T07:42:09.436Z,25.04
2018-08-13T07:43:09.154Z,25.09
2018-08-13T07:44:09.241Z,25.16
2018-08-13T07:45:09.017Z,25.30
2018-08-13T07:46:09.158Z,25.34
2018-08-13T07:47:08.875Z,25.46
2018-08-13T07:48:08.963Z,25.41
2018-08-13T07:49:08.731Z,25.56
2018-08-13T07:50:08.875Z,25.72
2018-08-13T07:51:08.593Z,25.78
2018-08-13T07:52:08.684Z,25.87
2018-08-13T07:53:08.449Z,25.89
2018-08-13T07:54:08.594Z,26.07
2018-08-13T07:55:08.309Z,26.21
2018-08-13T07:56:08.401Z,26.23
2018-08-13T07:57:08.169Z,26.27
2018-08-13T07:58:08.315Z,26.43
2018-08-13T07:59:08.030Z,26.47
2018-08-13T08:00:08.246Z,26.61
2018-08-13T08:01:07.889Z,26.62
2018-08-13T08:02:08.038Z,26.69
2018-08-13T08:03:07.749Z,26.86
2018-08-13T08:04:07.844Z,26.94
2018-08-13T08:05:07.611Z,27.01
2018-08-13T08:06:07.756Z,27.05
2018-08-13T08:07:07.473Z,27.12
2018-08-13T08:08:07.405Z,27.19
2018-08-13T08:09:07.531Z,27.17
2018-08-13T08:10:07.267Z,27.34
2018-08-13T08:11:07.281Z,27.32
2018-08-13T08:12:07.127Z,27.42
2018-08-13T08:13:07.088Z,27.57
2018-08-13T08:14:06.990Z,27.60
2018-08-13T08:15:07.001Z,27.79
2018-08-13T08:16:06.856Z,27.91
2018-08-13T08:17:06.911Z,27.89
2018-08-13T08:18:06.714Z,28.16
2018-08-13T08:19:06.721Z,28.16
2018-08-13T08:20:06.580Z,28.38
2018-08-13T08:21:06.633Z,28.47
2018-08-13T08:22:06.442Z,28.49
2018-08-13T08:23:06.442Z,28.51
2018-08-13T08:24:06.307Z,28.59
2018-08-13T08:25:06.239Z,28.47
2018-08-13T08:26:06.262Z,28.39
2018-08-13T08:27:06.102Z,28.39
2018-08-13T08:28:06.068Z,28.46
2018-08-13T08:29:05.973Z,28.50
2018-08-13T08:30:05.981Z,28.61
2018-08-13T08:31:05.833Z,28.83
2018-08-13T08:32:05.894Z,28.98
2018-08-13T08:33:05.697Z,29.07
2018-08-13T08:34:05.629Z,29.07
2018-08-13T08:35:05.567Z,29.06
2018-08-13T08:36:05.496Z,29.00
2018-08-13T08:37:05.512Z,28.93
2018-08-13T08:38:05.358Z,28.87
2018-08-13T08:39:05.423Z,28.73
2018-08-13T08:40:05.225Z,28.63
2018-08-13T08:41:05.241Z,28.49
2018-08-13T08:42:05.092Z,28.51
2018-08-13T08:43:05.142Z,28.47
2018-08-13T08:44:04.955Z,28.44
2018-08-13T08:45:04.894Z,28.41
2018-08-13T08:46:04.957Z,28.24
2018-08-13T08:47:04.756Z,28.20
2018-08-13T08:48:04.770Z,28.10
2018-08-13T08:49:04.624Z,27.97
2018-08-13T08:50:04.681Z,27.95
2018-08-13T08:51:04.488Z,27.88
2018-08-13T08:52:04.495Z,27.87
2018-08-13T08:53:04.354Z,27.74
2018-08-13T08:54:04.403Z,27.72
2018-08-13T08:55:04.219Z,27.65
2018-08-13T08:56:04.212Z,27.74
2018-08-13T08:57:04.088Z,27.62
2018-08-13T08:58:04.122Z,27.64
2018-08-13T08:59:03.953Z,27.60
2018-08-13T09:00:03.932Z,27.70
2018-08-13T09:01:03.816Z,27.67
2018-08-13T09:02:03.844Z,27.65
2018-08-13T09:03:03.681Z,27.69
2018-08-13T09:04:03.755Z,27.79
2018-08-13T09:05:03.547Z,27.99
2018-08-13T09:06:03.672Z,28.09
2018-08-13T09:07:03.413Z,28.24
2018-08-13T09:08:03.479Z,28.43
2018-08-13T09:09:03.278Z,28.46
2018-08-13T09:10:03.291Z,28.35
2018-08-13T09:11:03.146Z,28.44
2018-08-13T09:12:03.196Z,28.62
2018-08-13T09:13:03.011Z,28.83
2018-08-13T09:14:03.020Z,29.09
2018-08-13T09:15:02.879Z,29.01
2018-08-13T09:16:02.916Z,29.16
2018-08-13T09:17:02.743Z,29.11
2018-08-13T09:18:02.725Z,29.14
2018-08-13T09:19:02.651Z,29.13
2018-08-13T09:20:02.639Z,29.14
2018-08-13T09:21:02.478Z,29.26
2018-08-13T09:22:02.550Z,29.38
2018-08-13T09:23:02.342Z,29.50
2018-08-13T09:24:02.358Z,29.60
2018-08-13T09:25:02.209Z,29.66
2018-08-13T09:26:02.165Z,29.77
2018-08-13T09:27:02.077Z,29.81
2018-08-13T09:28:02.079Z,29.85
2018-08-13T09:29:01.951Z,30.06
2018-08-13T09:30:01.991Z,30.12
2018-08-13T09:31:01.812Z,30.22
2018-08-13T09:32:01.798Z,30.34
2018-08-13T09:33:01.684Z,30.44
2018-08-13T09:34:01.707Z,30.49
2018-08-13T09:35:01.554Z,30.55
2018-08-13T09:36:01.623Z,30.49
2018-08-13T09:37:01.421Z,30.53
2018-08-13T09:38:01.432Z,30.64
2018-08-13T09:39:01.286Z,30.62
2018-08-13T09:40:01.337Z,30.59
2018-08-13T09:41:01.158Z,30.55
2018-08-13T09:42:01.154Z,30.49
2018-08-13T09:43:01.030Z,30.52
2018-08-13T09:44:01.064Z,30.52
2018-08-13T09:45:00.894Z,30.50
2018-08-13T09:46:00.828Z,30.49
2018-08-13T09:47:00.878Z,30.52
2018-08-13T09:48:00.747Z,30.46
2018-08-13T09:49:00.689Z,30.55
2018-08-13T09:50:00.573Z,30.55
2018-08-13T09:51:00.600Z,30.68
2018-08-13T09:52:00.500Z,30.70
2018-08-13T09:53:00.509Z,30.75
2018-08-13T09:54:00.309Z,30.81
2018-08-13T09:55:00.320Z,30.83
2018-08-13T09:56:00.179Z,30.87
2018-08-13T09:57:00.231Z,30.75
2018-08-13T09:58:00.051Z,30.78
2018-08-13T09:59:00.041Z,30.77
2018-08-13T09:59:59.918Z,30.85
2018-08-13T10:00:59.948Z,30.90
2018-08-13T10:01:59.788Z,30.87
2018-08-13T10:02:59.725Z,30.90
2018-08-13T10:03:59.768Z,30.86
2018-08-13T10:04:59.595Z,30.90
2018-08-13T10:05:59.680Z,30.87
2018-08-13T10:06:59.462Z,30.96
2018-08-13T10:07:59.487Z,31.02
2018-08-13T10:08:59.342Z,31.05
2018-08-13T10:09:59.399Z,30.99
2018-08-13T10:10:59.240Z,31.04
2018-08-13T10:11:59.209Z,31.05
2018-08-13T10:12:59.079Z,31.08
2018-08-13T10:13:59.120Z,31.16
2018-08-13T10:14:58.949Z,31.24
2018-08-13T10:15:59.032Z,31.20
2018-08-13T10:16:58.821Z,31.42
2018-08-13T10:17:58.847Z,31.23
2018-08-13T10:18:58.695Z,31.31
2018-08-13T10:19:58.635Z,31.27
2018-08-13T10:20:58.657Z,31.39
2018-08-13T10:21:58.498Z,31.39
2018-08-13T10:22:58.565Z,31.34
2018-08-13T10:23:58.369Z,31.26
2018-08-13T10:24:58.377Z,31.20
2018-08-13T10:25:58.243Z,31.21
2018-08-13T10:26:58.294Z,31.15
2018-08-13T10:27:58.113Z,30.96
2018-08-13T10:28:58.048Z,30.90
2018-08-13T10:29:57.985Z,30.87
2018-08-13T10:30:58.005Z,30.89
2018-08-13T10:31:57.859Z,30.86
2018-08-13T10:32:57.921Z,30.85
2018-08-13T10:33:57.726Z,30.60
2018-08-13T10:34:57.728Z,30.67
2018-08-13T10:35:57.603Z,30.68
2018-08-13T10:36:57.639Z,30.67
2018-08-13T10:37:57.469Z,30.62
2018-08-13T10:38:57.450Z,30.62
2018-08-13T10:39:57.343Z,30.53
2018-08-13T10:40:57.363Z,30.48
2018-08-13T10:41:57.212Z,30.48
2018-08-13T10:42:57.144Z,30.44
2018-08-13T10:43:57.187Z,30.52
2018-08-13T10:44:57.090Z,30.59
2018-08-13T10:45:57.090Z,30.62
2018-08-13T10:46:56.893Z,30.77
2018-08-13T10:47:56.900Z,30.87
2018-08-13T10:48:56.765Z,30.97
2018-08-13T10:49:56.809Z,31.16
2018-08-13T10:50:56.634Z,31.41
2018-08-13T10:51:56.722Z,31.33
2018-08-13T10:52:56.506Z,31.38
2018-08-13T10:53:56.530Z,31.42
2018-08-13T10:54:56.379Z,31.49
2018-08-13T10:55:56.441Z,31.48
2018-08-13T10:56:56.255Z,31.44
2018-08-13T10:57:56.251Z,31.41
2018-08-13T10:58:56.121Z,31.33
2018-08-13T10:59:56.059Z,31.27
2018-08-13T11:00:55.995Z,31.11
2018-08-13T11:01:56.075Z,30.89
2018-08-13T11:02:55.934Z,30.67
2018-08-13T11:03:55.884Z,30.55
2018-08-13T11:04:55.740Z,30.30
2018-08-13T11:05:55.795Z,30.22
2018-08-13T11:06:55.606Z,29.96
2018-08-13T11:07:55.708Z,29.96
2018-08-13T11:08:55.482Z,29.89
2018-08-13T11:09:55.514Z,29.87
2018-08-13T11:10:55.351Z,29.65
2018-08-13T11:11:55.429Z,29.60
2018-08-13T11:12:55.235Z,29.53
2018-08-13T11:13:55.163Z,29.46
2018-08-13T11:14:55.242Z,29.32
2018-08-13T11:15:55.030Z,29.31
2018-08-13T11:16:55.054Z,29.07
2018-08-13T11:17:54.902Z,29.09
2018-08-13T11:18:54.873Z,29.22
2018-08-13T11:19:54.771Z,29.16
2018-08-13T11:20:54.872Z,29.29
2018-08-13T11:21:54.641Z,29.47
2018-08-13T11:22:54.688Z,29.55
2018-08-13T11:23:54.509Z,29.58
2018-08-13T11:24:54.599Z,29.46
2018-08-13T11:25:54.381Z,29.41
2018-08-13T11:26:54.405Z,29.32
2018-08-13T11:27:54.253Z,29.31
2018-08-13T11:28:54.188Z,29.28
2018-08-13T11:29:54.225Z,29.22
2018-08-13T11:30:54.058Z,29.16
2018-08-13T11:31:54.031Z,29.18
2018-08-13T11:32:53.928Z,29.18
2018-08-13T11:33:53.940Z,29.25
2018-08-13T11:34:53.833Z,29.18
2018-08-13T11:35:53.853Z,29.13
2018-08-13T11:36:53.668Z,29.22
2018-08-13T11:37:53.764Z,29.01
2018-08-13T11:38:53.536Z,28.96
2018-08-13T11:39:53.575Z,28.93
2018-08-13T11:40:53.407Z,28.88
2018-08-13T11:41:53.492Z,28.91
2018-08-13T11:42:53.272Z,29.06
2018-08-13T11:43:53.292Z,29.14
2018-08-13T11:44:53.152Z,29.19
2018-08-13T11:45:53.204Z,29.19
2018-08-13T11:46:53.017Z,29.11
2018-08-13T11:47:53.116Z,29.16
2018-08-13T11:48:52.886Z,29.10
2018-08-13T11:49:52.819Z,29.09
2018-08-13T11:50:52.931Z,29.11
2018-08-13T11:51:52.689Z,29.13
2018-08-13T11:52:52.740Z,29.19
2018-08-13T11:53:52.558Z,29.21
2018-08-13T11:54:52.547Z,29.25
2018-08-13T11:55:52.429Z,29.36
2018-08-13T11:56:52.459Z,29.34
2018-08-13T11:57:52.301Z,29.21
2018-08-13T11:58:52.270Z,29.11
2018-08-13T11:59:52.167Z,29.01
2018-08-13T12:00:52.307Z,29.04
2018-08-13T12:01:52.043Z,29.04
2018-08-13T12:02:52.090Z,29.04
2018-08-13T12:03:51.908Z,29.07
2018-08-13T12:04:51.900Z,29.18
2018-08-13T12:05:51.777Z,29.10
2018-08-13T12:06:51.813Z,29.10
2018-08-13T12:07:51.653Z,29.13
2018-08-13T12:08:51.734Z,29.25
2018-08-13T12:09:51.516Z,29.41
2018-08-13T12:10:51.539Z,29.28
2018-08-13T12:11:51.388Z,29.38
2018-08-13T12:12:51.447Z,29.22
2018-08-13T12:13:51.257Z,29.19
2018-08-13T12:14:51.358Z,29.11
2018-08-13T12:15:51.127Z,28.90
2018-08-13T12:16:51.172Z,28.83
2018-08-13T12:17:50.998Z,28.75
2018-08-13T12:18:50.975Z,28.73
2018-08-13T12:19:50.867Z,28.68
2018-08-13T12:20:50.886Z,28.65
2018-08-13T12:21:50.740Z,28.56
2018-08-13T12:22:50.798Z,28.51
2018-08-13T12:23:50.607Z,28.51
2018-08-13T12:24:50.709Z,28.43
2018-08-13T12:25:50.473Z,28.41
2018-08-13T12:26:50.408Z,28.32
2018-08-13T12:27:50.344Z,28.39
2018-08-13T12:28:50.429Z,28.46
2018-08-13T12:29:50.217Z,28.22
2018-08-13T12:30:50.241Z,28.24
2018-08-13T12:31:50.078Z,28.24
2018-08-13T12:32:50.151Z,28.24
2018-08-13T12:33:49.951Z,28.22
2018-08-13T12:34:50.061Z,28.24
2018-08-13T12:35:49.821Z,28.19
2018-08-13T12:36:49.868Z,28.25
2018-08-13T12:37:49.688Z,28.16
2018-08-13T12:38:49.789Z,28.11
2018-08-13T12:39:49.556Z,28.16
2018-08-13T12:40:49.590Z,28.17
2018-08-13T12:41:49.425Z,28.04
2018-08-13T12:42:49.503Z,28.06
2018-08-13T12:43:49.293Z,28.02
2018-08-13T12:44:49.227Z,28.10
2018-08-13T12:45:49.319Z,27.97
2018-08-13T12:46:49.098Z,27.94
2018-08-13T12:47:49.132Z,27.89
2018-08-13T12:48:48.972Z,27.91
2018-08-13T12:49:49.038Z,27.83
2018-08-13T12:50:48.833Z,27.87
2018-08-13T12:51:48.951Z,27.84